topu.com alexa rank chart, topu.com alexa rank daily changes

topu.com alexa rank chart, topu.com alexa rank daily changes

topu.com
Actual rank:
107 494

RANK HISTORY

Date Rank Diff
2017/06/22 107 494 +386
2017/06/21 107 108 +146
2017/06/20 106 962 +5 262
2017/06/19 101 700 +6 510
2017/06/18 95 190 +35
2017/06/17 95 155 +1 851
2017/06/16 93 304 +3 653
2017/06/15 89 651 +5 662
2017/06/14 83 989 +283
2017/06/13 83 706 -875
2017/06/12 84 581 +1 046
2017/06/11 83 535 -2 288
2017/06/10 85 823 +2 112
2017/06/09 83 711 +168
2017/06/08 83 543 -1 632
2017/06/07 85 175 -3 026
2017/06/06 88 201 +2 514
2017/06/05 85 687 -2 232
2017/06/04 87 919 -458
2017/06/03 88 377 -44
2017/06/02 88 421 -1 558
2017/06/01 89 979 +551
2017/05/31 89 428 -1 902
2017/05/30 91 330 -2 718
2017/05/29 94 048 -593
2017/05/28 94 641 +9 033
2017/05/27 85 608 +4 769
2017/05/26 80 839 +5 795
2017/05/25 75 044 -2 268
2017/05/24 77 312 +433
2017/05/23 76 879 -586
2017/05/22 77 465 +1 919
2017/05/21 75 546 -101
2017/05/20 75 647 -3 012
2017/05/19 78 659 -1 474
2017/05/18 80 133 -4
2017/05/17 80 137 -1 200
2017/05/16 81 337 +1 924
2017/05/15 79 413 -5 006
2017/05/14 84 419 -2 167
2017/05/13 86 586 -1 583
2017/05/12 88 169 -3 838
2017/05/11 92 007 +4 572
2017/05/10 87 435 -212
2017/05/09 87 647 +3 292
2017/05/08 84 355 +1 142
2017/05/07 83 213 +2 399
2017/05/06 80 814 +866
2017/05/05 79 948 +564
2017/05/04 79 384 -1 078
2017/05/03 80 462 +224
2017/05/02 80 238 +1 304
2017/05/01 78 934 +1 515
2017/04/30 77 419 +3 164
2017/04/29 74 255 +2 030
2017/04/28 72 225 -2 097
2017/04/27 74 322 -2 377
2017/04/26 76 699 -5 959
2017/04/25 82 658 +1 664
2017/04/24 80 994 -2 589
2017/04/23 83 583

WIDGET FOR YOUR SITE

DOMAINS WITH THE NEAREST RANK

Domain Rank
archaeology.org 107 489
upnjatim.ac.id 107 490
czechmoneyteens.com 107 491
mondadori.it 107 492
xn--cckl0itdpc9763ahlyc.cc 107 493
topu.com 107 494
codecondo.com 107 495
audiokinetic.com 107 496
feleke.com 107 497
pegadaian.co.id 107 498
zazzle.ca 107 499

DOMAINS WITH THE NEAREST RANK BY TLD .com

Domain Rank
52swine.com 107 479
hotstunners.com 107 480
wrestleview.com 107 485
sayangi.com 107 486
czechmoneyteens.com 107 491
topu.com 107 494
codecondo.com 107 495
audiokinetic.com 107 496
feleke.com 107 497
eromangadouzin.com 107 500
moxtra.com 107 503